Ammo Dump (231) Station Data

Red Flag Warning: No
Fire Weather Zone: 250
SDGE Region: North Coast
Lat/Lon: 33.357/-117.276

Observations

Time Wind Speed/Gust Temp(F) RH Fuel Moist Fuel Temp(F) Dewpt(F) Tmax(F) Tmin(F) Accum Precip 10-min Precip SL Press(mb)
6/27 5:00pm 212 7 G 13 81° 43% - - 56° 91.7° 57.4° - - -
6/27 4:50pm 216 8 G 13 81° 42% - - 55° 91.7° 57.4° - - -
6/27 4:40pm 215 9 G 14 81° 39% - - 54° 91.7° 57.4° - - -
6/27 4:30pm 225 7 G 12 81° 39% - - 54° 91.7° 57.4° - - -
6/27 4:20pm 216 8 G 11 82° 38% - - 54° 91.7° 57.4° - - -
6/27 4:10pm 212 8 G 13 82° 39% - - 55° 91.7° 57.4° - - -
6/27 4:00pm 209 8 G 14 83° 38% - - 55° 91.7° 57.4° - - -
6/27 3:50pm 208 7 G 12 84° 37% - - 55° 91.7° 57.4° - - -
6/27 3:40pm 211 7 G 12 84° 37% - - 55° 91.7° 57.4° - - -
6/27 3:30pm 215 8 G 14 85° 36% - - 55° 91.7° 57.4° - - -
6/27 3:20pm 213 9 G 14 85° 36% - - 55° 91.7° 57.4° - - -
6/27 3:10pm 208 8 G 13 85° 35% - - 54° 91.7° 57.4° - - -
6/27 3:00pm 200 9 G 14 86° 35% - - 55° 91.7° 57.4° - - -
6/27 2:50pm 215 9 G 15 86° 35% - - 55° 91.7° 57.4° - - -
6/27 2:40pm 218 8 G 14 87° 31% - - 53° 91.7° 57.4° - - -
6/27 2:30pm 214 9 G 13 86° 29% - - 50° 91.7° 57.4° - - -
6/27 2:20pm 225 9 G 15 87° 27% - - 49° 91.7° 57.4° - - -
6/27 2:10pm 226 9 G 14 87° 28% - - 50° 91.7° 57.4° - - -
6/27 2:00pm 230 10 G 14 86° 30% - - 51° 91.7° 57.4° - - -
6/27 1:50pm 222 9 G 16 87° 30% - - 52° 91.7° 57.4° - - -
6/27 1:40pm 233 10 G 16 87° 29% - - 51° 91.7° 57.4° - - -
6/27 1:30pm 227 8 G 14 88° 30% - - 53° 91.7° 57.4° - - -
6/27 1:20pm 216 8 G 13 87° 31% - - 53° 91.7° 57.4° - - -
6/27 1:10pm 224 9 G 13 87° 30% - - 51° 91.7° 57.4° - - -
6/27 1:00pm 224 9 G 14 88° 29% - - 52° 91.7° 57.4° - - -
6/27 12:50pm 221 10 G 15 88° 28% - - 51° 91.7° 57.4° - - -
6/27 12:40pm 205 9 G 16 89° 28% - - 51° 91.7° 57.4° - - -
6/27 12:30pm 218 9 G 15 89° 26% - - 50° 91.7° 57.4° - - -
6/27 12:20pm 225 8 G 13 90° 27% - - 51° 91.7° 57.4° - - -
6/27 12:10pm 210 8 G 13 90° 29% - - 53° 91.7° 57.4° - - -
6/27 12:00pm 203 8 G 15 90° 29% - - 54° 91.7° 57.4° - - -
6/27 11:50am 208 8 G 14 91° 27% - - 52° 91.7° 57.4° - - -
6/27 11:40am 217 6 G 11 91° 25% - - 50° 91.7° 57.4° - - -
6/27 11:30am 219 5 G 10 90° 26% - - 50° 91.1° 57.4° - - -
6/27 11:20am 241 5 G 10 89° 27% - - 50° 90° 57.4° - - -
6/27 11:10am 248 4 G 9 89° 28% - - 51° 90° 57.4° - - -
6/27 11:00am 242 4 G 8 88° 27% - - 50° 90° 57.4° - - -
6/27 10:50am 218 4 G 10 88° 27% - - 50° 88.9° 57.4° - - -
6/27 10:40am 200 3 G 7 87° 28% - - 50° 88.2° 57.4° - - -
6/27 10:30am 251 4 G 7 86° 27% - - 48° 87.1° 57.4° - - -
6/27 10:20am 245 5 G 9 85° 28% - - 49° 86.2° 57.4° - - -
6/27 10:10am 227 4 G 8 85° 27% - - 47° 86° 57.4° - - -
6/27 10:00am 238 5 G 9 84° 27% - - 47° 84.7° 57.4° - - -
6/27 9:50am 239 5 G 9 83° 27% - - 46° 84.1° 57.4° - - -
6/27 9:40am 239 5 G 7 83° 28% - - 46° 84° 57.4° - - -
6/27 9:30am 232 4 G 8 83° 30% - - 48° 84° 57.4° - - -
6/27 9:20am 237 4 G 6 82° 33% - - 50° 83.1° 57.4° - - -
6/27 9:10am 269 4 G 7 81° 38% - - 53° 81.4° 57.4° - - -
6/27 9:00am 273 4 G 6 80° 37% - - 52° 81.4° 57.4° - - -
6/27 8:50am 278 3 G 5 80° 38% - - 52° 80.4° 57.4° - - -
6/27 8:40am 263 3 G 5 79° 37% - - 51° 79.7° 57.4° - - -
6/27 8:30am 286 2 G 4 79° 37% - - 50° 79.4° 57.4° - - -
6/27 8:20am 255 2 G 4 78° 36% - - 49° 79.1° 57.4° - - -
6/27 8:10am 278 1 G 4 78° 34% - - 48° 79° 57.4° - - -
6/27 8:00am 243 1 G 3 77° 35% - - 48° 78.2° 57.4° - - -
6/27 7:50am 155 1 G 4 77° 35% - - 47° 77.6° 57.4° - - -
6/27 7:40am 103 1 G 2 76° 36% - - 47° 76.3° 57.4° - - -
6/27 7:30am 155 0 G 1 75° 37% - - 47° 75.6° 57.4° - - -
6/27 7:20am 80 1 G 2 73° 40% - - 47° 74.7° 57.4° - - -
6/27 7:10am 104 2 G 4 70° 42% - - 46° 71.2° 57.4° - - -
6/27 7:00am 99 2 G 4 69° 44% - - 46° 69.8° 57.4° - - -
6/27 6:50am 80 2 G 4 67° 47% - - 46° 68.7° 57.4° - - -
6/27 6:40am 122 2 G 4 64° 53% - - 47° 65.6° 57.4° - - -
6/27 6:30am 108 2 G 3 63° 54% - - 46° 64° 57.4° - - -
6/27 6:20am 121 2 G 3 63° 54% - - 46° 64° 57.4° - - -
6/27 6:10am 123 2 G 4 62° 57% - - 46° 64° 57.4° - - -
6/27 6:00am 113 3 G 6 63° 55% - - 46° 64° 57.4° - - -
6/27 5:50am 124 2 G 5 61° 58% - - 46° 64° 57.4° - - -
6/27 5:40am 148 1 G 3 60° 61% - - 47° 64° 57.4° - - -
6/27 5:30am 128 2 G 3 61° 60% - - 47° 64° 57.4° - - -
6/27 5:20am 143 2 G 3 60° 63% - - 47° 64° 57.4° - - -
6/27 5:10am 115 2 G 3 59° 64% - - 47° 64° 57.4° - - -
6/27 5:00am 109 2 G 3 58° 67% - - 47° 64° 57.4° - - -
6/27 4:50am 129 1 G 3 59° 67% - - 48° 64° 58° - - -
6/27 4:40am 130 1 G 2 60° 65% - - 48° 64° 58.1° - - -
6/27 4:30am 145 1 G 2 61° 64% - - 48° 64° 58.1° - - -
6/27 4:20am 143 1 G 2 61° 64% - - 49° 64° 58.1° - - -
6/27 4:10am 111 1 G 2 60° 67% - - 49° 64° 58.1° - - -
6/27 4:00am 118 1 G 2 59° 69% - - 49° 64° 58.1° - - -
6/27 3:50am 117 2 G 3 61° 67% - - 50° 64° 59.6° - - -
6/27 3:40am 137 2 G 3 61° 68% - - 50° 64° 59.6° - - -
6/27 3:30am 136 2 G 3 61° 68% - - 50° 64° 59.6° - - -
6/27 3:20am 142 2 G 2 62° 67% - - 51° 64° 59.6° - - -
6/27 3:10am 125 2 G 4 62° 66% - - 50° 64° 59.6° - - -
6/27 3:00am 103 1 G 3 61° 70% - - 51° 64° 59.6° - - -
6/27 2:50am 131 1 G 2 60° 74% - - 52° 64° 59.6° - - -
6/27 2:40am 122 1 G 2 62° 72% - - 53° 64° 59.6° - - -
6/27 2:30am 128 2 G 5 62° 73% - - 53° 64° 59.6° - - -
6/27 2:20am 118 2 G 4 61° 77% - - 53° 64° 59.6° - - -
6/27 2:10am 122 1 G 2 61° 78% - - 54° 64° 60.3° - - -
6/27 2:00am 121 2 G 4 61° 79% - - 54° 64° 60.3° - - -
6/27 1:50am 142 2 G 3 62° 79% - - 55° 64° 60.4° - - -
6/27 1:40am 143 2 G 3 62° 78% - - 55° 64° 60.4° - - -
6/27 1:30am 118 2 G 3 62° 78% - - 55° 64° 60.4° - - -
6/27 1:20am 152 2 G 3 62° 78% - - 55° 64° 60.4° - - -
6/27 1:10am 122 2 G 4 62° 79% - - 55° 64° 60.4° - - -
6/27 1:00am 120 2 G 3 62° 76% - - 55° 64° 60.4° - - -
6/27 12:50am 141 2 G 3 62° 79% - - 55° 63.5° 60.4° - - -
6/27 12:40am 127 2 G 4 61° 80% - - 55° 62.8° 60.4° - - -
6/27 12:30am 127 2 G 3 62° 80% - - 56° 62.5° 60.4° - - -
6/27 12:20am 131 1 G 3 61° 82% - - 56° 62.5° 60.4° - - -
6/27 12:10am 111 2 G 3 62° 81% - - 56° 62.5° 60.8° - - -
6/27 12:00am 107 2 G 3 62° 81% - - 56° 91.6° 59.3° - - -
6/26 11:50pm 135 2 G 3 62° 83% - - 57° 91.6° 59.3° - - -
6/26 11:40pm 127 1 G 2 62° 84% - - 58° 91.6° 59.3° - - -
6/26 11:30pm 138 2 G 3 61° 85% - - 57° 91.6° 59.3° - - -
6/26 11:20pm 98 1 G 2 62° 84% - - 57° 91.6° 59.3° - - -
6/26 11:10pm 133 1 G 3 62° 85% - - 58° 91.6° 59.3° - - -
6/26 11:00pm 132 1 G 3 63° 85% - - 58° 91.6° 59.3° - - -
6/26 10:50pm 128 2 G 3 63° 83% - - 57° 91.6° 59.3° - - -
6/26 10:40pm 105 1 G 2 63° 83% - - 58° 91.6° 59.3° - - -
6/26 10:30pm 137 1 G 2 64° 81% - - 58° 91.6° 59.3° - - -
6/26 10:20pm 124 1 G 2 65° 81% - - 59° 91.6° 59.3° - - -
6/26 10:10pm 112 1 G 3 65° 81% - - 59° 91.6° 59.3° - - -
6/26 10:00pm 113 1 G 3 66° 79% - - 59° 91.6° 59.3° - - -
6/26 9:50pm 124 1 G 2 67° 78% - - 60° 91.6° 59.3° - - -
6/26 9:40pm 169 1 G 3 66° 78% - - 59° 91.6° 59.3° - - -
6/26 9:30pm 134 1 G 2 67° 75% - - 59° 91.6° 59.3° - - -
6/26 9:20pm 133 1 G 2 68° 73% - - 60° 91.6° 59.3° - - -
6/26 9:10pm 153 1 G 3 69° 71% - - 59° 91.6° 59.3° - - -
6/26 9:00pm 184 1 G 4 70° 68% - - 59° 91.6° 59.3° - - -
6/26 8:50pm 175 2 G 4 71° 66% - - 59° 91.6° 59.3° - - -
6/26 8:40pm 161 1 G 2 72° 64% - - 59° 91.6° 59.3° - - -
6/26 8:30pm 161 2 G 3 73° 62% - - 59° 91.6° 59.3° - - -
6/26 8:20pm 167 1 G 2 74° 60% - - 59° 91.6° 59.3° - - -
6/26 8:10pm 151 2 G 4 75° 59% - - 59° 91.6° 59.3° - - -
6/26 8:00pm 201 2 G 5 76° 56% - - 60° 91.6° 59.3° - - -
6/26 7:50pm 208 2 G 4 78° 52% - - 59° 91.6° 59.3° - - -
6/26 7:40pm 187 1 G 3 79° 50% - - 59° 91.6° 59.3° - - -
6/26 7:30pm 194 1 G 2 80° 49% - - 59° 91.6° 59.3° - - -
6/26 7:20pm 193 2 G 5 81° 48% - - 59° 91.6° 59.3° - - -
6/26 7:10pm 184 2 G 5 81° 47% - - 59° 91.6° 59.3° - - -
6/26 7:00pm 195 3 G 5 82° 46% - - 59° 91.6° 59.3° - - -
6/26 6:50pm 177 3 G 5 82° 45% - - 59° 91.6° 59.3° - - -
6/26 6:40pm 203 4 G 6 82° 44% - - 58° 91.6° 59.3° - - -
6/26 6:30pm 183 3 G 6 82° 44% - - 59° 91.6° 59.3° - - -
6/26 6:20pm 185 4 G 7 83° 44% - - 59° 91.6° 59.3° - - -
6/26 6:10pm 171 3 G 6 83° 44% - - 59° 91.6° 59.3° - - -
6/26 6:00pm 184 4 G 7 84° 42% - - 59° 91.6° 59.3° - - -
6/26 5:50pm 189 5 G 9 85° 41% - - 59° 91.6° 59.3° - - -
6/26 5:40pm 191 5 G 10 85° 41% - - 59° 91.6° 59.3° - - -
6/26 5:30pm 202 6 G 11 86° 40% - - 59° 91.6° 59.3° - - -
6/26 5:20pm 194 7 G 12 87° 38% - - 58° 91.6° 59.3° - - -
6/26 5:10pm 202 6 G 11 88° 36% - - 58° 91.6° 59.3° - - -
6/26 5:00pm 214 7 G 11 88° 36% - - 58° 91.6° 59.3° - - -
6/26 4:50pm 206 7 G 12 88° 37% - - 58° 91.6° 59.3° - - -
6/26 4:40pm 201 6 G 10 88° 36% - - 58° 91.6° 59.3° - - -
6/26 4:30pm 191 6 G 13 88° 37% - - 59° 91.6° 59.3° - - -
6/26 4:20pm 208 6 G 11 89° 35% - - 58° 91.6° 59.3° - - -
6/26 4:10pm 209 6 G 11 89° 36% - - 59° 91.6° 59.3° - - -
6/26 4:00pm 203 7 G 12 89° 37% - - 59° 91.6° 59.3° - - -
6/26 3:50pm 209 7 G 12 89° 36% - - 59° 91.6° 59.3° - - -
6/26 3:40pm 213 8 G 12 90° 35% - - 59° 91.6° 59.3° - - -
6/26 3:30pm 211 8 G 12 90° 34% - - 58° 91.6° 59.3° - - -
6/26 3:20pm 227 7 G 12 91° 34% - - 58° 91.6° 59.3° - - -
6/26 3:10pm 219 7 G 13 90° 35% - - 59° 91.6° 59.3° - - -
6/26 3:00pm 223 7 G 11 90° 35% - - 59° 91.3° 59.3° - - -
6/26 2:50pm 223 8 G 13 90° 35% - - 59° 91.3° 59.3° - - -
6/26 2:40pm 218 8 G 13 90° 35% - - 59° 91.3° 59.3° - - -
6/26 2:30pm 227 8 G 12 90° 36% - - 59° 91.3° 59.3° - - -
6/26 2:20pm 225 7 G 13 90° 36% - - 60° 91.3° 59.3° - - -
6/26 2:10pm 225 6 G 10 89° 38% - - 60° 90.2° 59.3° - - -
6/26 2:00pm 223 7 G 11 88° 39% - - 60° 89.6° 59.3° - - -
6/26 1:50pm 221 7 G 13 88° 40% - - 60° 89.6° 59.3° - - -
6/26 1:40pm 193 7 G 12 87° 41% - - 60° 89.6° 59.3° - - -
6/26 1:30pm 214 6 G 11 87° 41% - - 60° 89.6° 59.3° - - -
6/26 1:20pm 210 6 G 11 87° 41% - - 60° 89.6° 59.3° - - -
6/26 1:10pm 218 7 G 13 88° 40% - - 61° 89.6° 59.3° - - -
6/26 1:00pm 227 7 G 13 87° 40% - - 60° 89.6° 59.3° - - -
6/26 12:50pm 227 7 G 11 88° 39% - - 60° 89.6° 59.3° - - -
6/26 12:40pm 219 7 G 11 87° 42% - - 61° 89.6° 59.3° - - -
6/26 12:30pm 217 7 G 12 88° 41% - - 61° 89.6° 59.3° - - -
6/26 12:20pm 205 6 G 10 88° 41% - - 61° 89.6° 59.3° - - -
6/26 12:10pm 210 7 G 11 87° 41% - - 60° 89.6° 59.3° - - -
6/26 12:00pm 200 7 G 12 86° 40% - - 59° 89.6° 59.3° - - -
6/26 11:50am 194 7 G 11 86° 40% - - 59° 89.6° 59.3° - - -
6/26 11:40am 214 8 G 13 87° 41% - - 60° 89.6° 59.3° - - -
6/26 11:30am 212 8 G 13 87° 40% - - 59° 89.6° 59.3° - - -
6/26 11:20am 201 8 G 13 88° 41% - - 61° 89.6° 59.3° - - -
6/26 11:10am 214 7 G 12 89° 41% - - 62° 89.6° 59.3° - - -
6/26 11:00am 233 7 G 12 88° 43% - - 63° 89.1° 59.3° - - -
6/26 10:50am 230 5 G 9 88° 42% - - 62° 88.8° 59.3° - - -
6/26 10:40am 243 6 G 10 87° 39% - - 59° 88° 59.3° - - -
6/26 10:30am 243 6 G 10 87° 39% - - 59° 87.7° 59.3° - - -
6/26 10:20am 242 6 G 10 86° 40% - - 59° 87.4° 59.3° - - -
6/26 10:10am 242 6 G 9 86° 42% - - 60° 87.1° 59.3° - - -
6/26 10:00am 233 6 G 10 86° 43% - - 61° 87.1° 59.3° - - -
6/26 9:50am 249 4 G 8 86° 41% - - 60° 86.5° 59.3° - - -
6/26 9:40am 255 4 G 6 85° 42% - - 59° 85.8° 59.3° - - -
6/26 9:30am 253 4 G 6 84° 43% - - 59° 85.2° 59.3° - - -
6/26 9:20am 276 4 G 7 83° 46% - - 60° 83.3° 59.3° - - -
6/26 9:10am 277 5 G 7 82° 49% - - 60° 82.5° 59.3° - - -
6/26 9:00am 279 5 G 7 81° 50% - - 60° 81.6° 59.3° - - -
6/26 8:50am 271 4 G 6 80° 51% - - 60° 80.6° 59.3° - - -
6/26 8:40am 277 4 G 6 79° 52% - - 60° 79.6° 59.3° - - -
6/26 8:30am 275 3 G 5 78° 54% - - 60° 79.1° 59.3° - - -
6/26 8:20am 288 3 G 5 77° 55% - - 60° 78.2° 59.3° - - -
6/26 8:10am 287 3 G 5 76° 58% - - 60° 77.1° 59.3° - - -
6/26 8:00am 304 3 G 5 76° 57% - - 60° 77.1° 59.3° - - -
6/26 7:50am 286 3 G 5 76° 57% - - 60° 77.1° 59.3° - - -
6/26 7:40am 283 2 G 4 76° 51% - - 57° 77.1° 59.3° - - -
6/26 7:30am 100 0 G 1 75° 55% - - 58° 76.8° 59.3° - - -
6/26 7:20am 112 1 G 2 73° 60% - - 58° 73.6° 59.3° - - -
6/26 7:10am 88 0 G 1 71° 64% - - 58° 72.3° 59.3° - - -
6/26 7:00am 78 1 G 2 68° 71% - - 59° 69.7° 59.3° - - -
6/26 6:50am 160 0 G 1 66° 74% - - 58° 67.5° 59.3° - - -
6/26 6:40am 126 1 G 2 64° 77% - - 57° 65.1° 59.3° - - -
6/26 6:30am 149 1 G 2 63° 80% - - 57° 63.8° 59.3° - - -
6/26 6:20am 121 1 G 2 62° 82% - - 56° 63.3° 59.3° - - -
6/26 6:10am 129 1 G 2 60° 84% - - 56° 63.3° 59.3° - - -
6/26 6:00am 111 1 G 2 61° 84% - - 56° 63.3° 59.3° - - -